createdAt,value
2018-10-05T00:00:40.675Z,12.39
2018-10-05T00:01:50.628Z,12.37
2018-10-05T00:03:00.578Z,12.32
2018-10-05T00:04:10.538Z,12.39
2018-10-05T00:05:20.480Z,12.36
2018-10-05T00:06:30.173Z,12.32
2018-10-05T00:07:40.119Z,12.35
2018-10-05T00:08:50.076Z,12.33
2018-10-05T00:10:00.027Z,12.29
2018-10-05T00:11:09.990Z,12.2
2018-10-05T00:12:19.940Z,12.11
2018-10-05T00:13:29.894Z,12.17
2018-10-05T00:14:39.853Z,12.2
2018-10-05T00:15:49.798Z,12.1
2018-10-05T00:16:59.749Z,12.14
2018-10-05T00:18:09.438Z,12.11
2018-10-05T00:19:19.326Z,12.08
2018-10-05T00:20:29.459Z,12.08
2018-10-05T00:21:39.747Z,12.02
2018-10-05T00:22:49.712Z,12.02
2018-10-05T00:23:59.394Z,11.99
2018-10-05T00:25:09.333Z,11.96
2018-10-05T00:26:19.296Z,11.95
2018-10-05T00:27:29.237Z,11.96
2018-10-05T00:28:39.186Z,11.91
2018-10-05T00:29:48.888Z,11.93
2018-10-05T00:30:58.833Z,11.88
2018-10-05T00:32:08.553Z,11.99
2018-10-05T00:33:18.287Z,11.96
2018-10-05T00:34:28.245Z,11.89
2018-10-05T00:35:37.679Z,11.97
2018-10-05T00:36:47.645Z,11.93
2018-10-05T00:37:57.463Z,11.99
2018-10-05T00:39:07.447Z,11.96
2018-10-05T00:40:17.402Z,12.05
2018-10-05T00:41:27.373Z,12
2018-10-05T00:42:37.059Z,12.07
2018-10-05T00:43:46.758Z,12.08
2018-10-05T00:44:56.439Z,12.11
2018-10-05T00:46:06.401Z,12.11
2018-10-05T00:47:16.090Z,11.96
2018-10-05T00:48:26.035Z,12.03
2018-10-05T00:49:35.726Z,12.07
2018-10-05T00:50:45.669Z,12.02
2018-10-05T00:51:55.626Z,12
2018-10-05T00:53:05.520Z,12.03
2018-10-05T00:54:15.531Z,12.03
2018-10-05T00:55:25.472Z,12.02
2018-10-05T00:56:35.155Z,11.96
2018-10-05T00:57:45.092Z,11.95
2018-10-05T00:58:55.032Z,11.96
2018-10-05T01:00:04.717Z,11.96
2018-10-05T01:01:14.145Z,11.93
2018-10-05T01:02:24.093Z,11.95
2018-10-05T01:03:34.044Z,11.97
2018-10-05T01:04:43.991Z,11.88
2018-10-05T01:05:53.923Z,11.95
2018-10-05T01:07:03.877Z,11.96
2018-10-05T01:08:13.582Z,11.85
2018-10-05T01:09:23.519Z,11.93
2018-10-05T01:10:33.206Z,11.78
2018-10-05T01:11:42.900Z,11.83
2018-10-05T01:12:52.862Z,11.78
2018-10-05T01:14:02.291Z,11.83
2018-10-05T01:15:12.247Z,11.78
2018-10-05T01:16:22.189Z,11.81
2018-10-05T01:17:31.623Z,11.78
2018-10-05T01:18:41.562Z,11.78
2018-10-05T01:19:51.554Z,11.77
2018-10-05T01:21:01.555Z,11.78
2018-10-05T01:22:11.260Z,11.81
2018-10-05T01:23:21.204Z,11.83
2018-10-05T01:24:31.152Z,11.78
2018-10-05T01:25:40.583Z,11.77
2018-10-05T01:26:50.526Z,11.76
2018-10-05T01:28:00.213Z,11.76
2018-10-05T01:29:10.188Z,11.74
2018-10-05T01:30:20.133Z,11.73
2018-10-05T01:31:30.073Z,11.7
2018-10-05T01:32:40.024Z,11.7
2018-10-05T01:33:49.707Z,11.68
2018-10-05T01:34:59.668Z,11.68
2018-10-05T01:36:09.361Z,11.74
2018-10-05T01:37:19.331Z,11.74
2018-10-05T01:38:29.028Z,11.77
2018-10-05T01:39:38.969Z,11.73
2018-10-05T01:40:48.915Z,11.71
2018-10-05T01:41:58.863Z,11.83
2018-10-05T01:43:08.541Z,11.83
2018-10-05T01:44:18.481Z,11.77
2018-10-05T01:45:28.440Z,11.83
2018-10-05T01:46:38.384Z,11.78
2018-10-05T01:47:48.339Z,11.8
2018-10-05T01:48:58.283Z,11.8
2018-10-05T01:50:07.728Z,11.78
2018-10-05T01:51:17.677Z,11.85
2018-10-05T01:52:27.660Z,11.78
2018-10-05T01:53:37.365Z,11.77
2018-10-05T01:54:47.321Z,11.78
2018-10-05T01:55:57.266Z,11.8
2018-10-05T01:57:06.948Z,11.8
2018-10-05T01:58:16.650Z,11.89
2018-10-05T01:59:26.572Z,11.8
2018-10-05T02:00:36.014Z,11.8
2018-10-05T02:01:45.957Z,11.81
2018-10-05T02:02:55.655Z,11.81
2018-10-05T02:04:05.597Z,11.8
2018-10-05T02:05:15.549Z,11.68
2018-10-05T02:06:25.497Z,11.73
2018-10-05T02:07:35.458Z,11.73
2018-10-05T02:08:44.906Z,11.67
2018-10-05T02:09:54.857Z,11.65
2018-10-05T02:11:04.801Z,11.7
2018-10-05T02:12:14.750Z,11.63
2018-10-05T02:13:24.718Z,11.7
2018-10-05T02:14:34.417Z,11.71
2018-10-05T02:15:44.357Z,11.68
2018-10-05T02:16:54.305Z,11.68
2018-10-05T02:18:04.277Z,11.77
2018-10-05T02:19:13.972Z,11.65
2018-10-05T02:20:23.929Z,11.65
2018-10-05T02:21:33.361Z,11.76
2018-10-05T02:22:43.050Z,11.76
2018-10-05T02:23:52.491Z,11.71
2018-10-05T02:25:02.177Z,11.74
2018-10-05T02:26:11.871Z,11.73
2018-10-05T02:27:21.690Z,11.73
2018-10-05T02:28:31.726Z,11.73
2018-10-05T02:29:41.682Z,11.74
2018-10-05T02:30:51.633Z,11.7
2018-10-05T02:32:01.582Z,11.65
2018-10-05T02:33:11.827Z,11.74
2018-10-05T02:34:21.658Z,11.77
2018-10-05T02:35:31.613Z,11.68
2018-10-05T02:36:41.553Z,11.76
2018-10-05T02:37:51.255Z,11.77
2018-10-05T02:39:01.214Z,11.71
2018-10-05T02:40:11.157Z,11.65
2018-10-05T02:41:21.111Z,11.6
2018-10-05T02:42:31.072Z,11.6
2018-10-05T02:43:41.013Z,11.59
2018-10-05T02:44:50.970Z,11.63
2018-10-05T02:46:00.922Z,11.53
2018-10-05T02:47:10.933Z,11.51
2018-10-05T02:48:20.884Z,11.55
2018-10-05T02:49:30.830Z,11.49
2018-10-05T02:50:40.797Z,11.52
2018-10-05T02:51:50.238Z,11.55
2018-10-05T02:52:59.925Z,11.45
2018-10-05T02:54:09.615Z,11.53
2018-10-05T02:55:19.563Z,11.52
2018-10-05T02:56:29.526Z,11.55
2018-10-05T02:57:38.967Z,11.45
2018-10-05T02:58:48.415Z,11.41
2018-10-05T02:59:58.375Z,11.41
2018-10-05T03:01:08.323Z,11.45
2018-10-05T03:02:18.015Z,11.43
2018-10-05T03:03:27.713Z,11.45
2018-10-05T03:04:37.646Z,11.49
2018-10-05T03:05:47.360Z,11.45
2018-10-05T03:06:57.307Z,11.52
2018-10-05T03:08:07.283Z,11.56
2018-10-05T03:09:16.977Z,11.48
2018-10-05T03:10:26.946Z,11.58
2018-10-05T03:11:36.889Z,11.52
2018-10-05T03:12:46.586Z,11.55
2018-10-05T03:13:56.279Z,11.55
2018-10-05T03:15:06.238Z,11.63
2018-10-05T03:16:16.180Z,11.6
2018-10-05T03:17:26.121Z,11.68
2018-10-05T03:18:35.903Z,11.74
2018-10-05T03:19:45.660Z,11.73
2018-10-05T03:20:56.039Z,11.77
2018-10-05T03:22:05.988Z,11.74
2018-10-05T03:23:15.938Z,11.83
2018-10-05T03:24:25.631Z,11.78
2018-10-05T03:25:35.568Z,11.88
2018-10-05T03:26:45.517Z,11.78
2018-10-05T03:27:54.990Z,11.76
2018-10-05T03:29:04.688Z,11.78
2018-10-05T03:30:14.642Z,11.77
2018-10-05T03:31:24.607Z,11.8
2018-10-05T03:32:34.561Z,11.83
2018-10-05T03:33:44.526Z,11.8
2018-10-05T03:34:54.469Z,11.81
2018-10-05T03:36:04.443Z,11.76
2018-10-05T03:37:14.398Z,11.74
2018-10-05T03:38:24.082Z,11.77
2018-10-05T03:39:34.024Z,11.7
2018-10-05T03:40:43.999Z,11.76
2018-10-05T03:41:53.962Z,11.65
2018-10-05T03:43:03.652Z,11.73
2018-10-05T03:44:13.086Z,11.74
2018-10-05T03:45:23.109Z,11.73
2018-10-05T03:46:32.545Z,11.71
2018-10-05T03:47:42.531Z,11.76
2018-10-05T03:48:52.480Z,11.73
2018-10-05T03:50:02.171Z,11.74
2018-10-05T03:51:12.121Z,11.83
2018-10-05T03:52:22.091Z,11.77
2018-10-05T03:53:31.772Z,11.83
2018-10-05T03:54:41.459Z,11.77
2018-10-05T03:55:51.173Z,11.83
2018-10-05T03:57:01.120Z,11.8
2018-10-05T03:58:11.064Z,11.8
2018-10-05T03:59:20.753Z,11.73
2018-10-05T04:00:30.435Z,11.77
2018-10-05T04:01:39.879Z,11.8
2018-10-05T04:02:49.323Z,11.71
2018-10-05T04:03:58.749Z,11.8
2018-10-05T04:05:08.182Z,11.81
2018-10-05T04:06:18.136Z,11.73
2018-10-05T04:07:28.115Z,11.76
2018-10-05T04:08:37.820Z,11.83
2018-10-05T04:09:47.768Z,11.71
2018-10-05T04:10:57.732Z,11.81
2018-10-05T04:12:07.702Z,11.78
2018-10-05T04:13:17.664Z,11.78
2018-10-05T04:14:27.642Z,11.86
2018-10-05T04:15:37.318Z,11.89
2018-10-05T04:16:47.276Z,11.86
2018-10-05T04:17:57.252Z,11.91
2018-10-05T04:19:07.216Z,11.91
2018-10-05T04:20:17.167Z,11.91
2018-10-05T04:21:27.120Z,12
2018-10-05T04:22:37.066Z,11.95
2018-10-05T04:23:46.504Z,11.91
2018-10-05T04:24:56.454Z,11.95
2018-10-05T04:26:06.150Z,12.03
2018-10-05T04:27:16.035Z,11.95
2018-10-05T04:28:26.203Z,11.95
2018-10-05T04:29:36.171Z,12
2018-10-05T04:30:45.875Z,11.97
2018-10-05T04:31:55.822Z,12.02
2018-10-05T04:33:05.771Z,11.91
2018-10-05T04:34:15.212Z,11.91
2018-10-05T04:35:25.323Z,11.91
2018-10-05T04:36:35.365Z,11.93
2018-10-05T04:37:45.320Z,11.91
2018-10-05T04:38:55.279Z,11.93
2018-10-05T04:40:04.963Z,11.95
2018-10-05T04:41:15.100Z,11.95
2018-10-05T04:42:25.452Z,11.93
2018-10-05T04:43:35.414Z,11.88
2018-10-05T04:44:45.369Z,11.95
2018-10-05T04:45:55.327Z,11.95
2018-10-05T04:47:04.773Z,11.91
2018-10-05T04:48:14.720Z,11.93
2018-10-05T04:49:24.711Z,11.95
2018-10-05T04:50:34.818Z,12.02
2018-10-05T04:51:44.763Z,12.02
2018-10-05T04:52:54.790Z,11.99
2018-10-05T04:54:04.792Z,12.02
2018-10-05T04:55:14.780Z,12.05
2018-10-05T04:56:24.758Z,11.97
2018-10-05T04:57:34.524Z,12
2018-10-05T04:58:44.480Z,11.99
2018-10-05T04:59:54.208Z,11.95
2018-10-05T05:01:04.165Z,11.97
2018-10-05T05:02:14.114Z,11.95
2018-10-05T05:03:23.886Z,11.86
2018-10-05T05:04:33.687Z,11.88
2018-10-05T05:05:43.646Z,11.89
2018-10-05T05:06:53.623Z,11.97
2018-10-05T05:08:03.582Z,11.95
2018-10-05T05:09:13.531Z,11.95
2018-10-05T05:10:23.455Z,11.95
2018-10-05T05:11:33.401Z,11.96
2018-10-05T05:12:43.344Z,12.03
2018-10-05T05:13:52.770Z,11.96
2018-10-05T05:15:02.729Z,12.05
2018-10-05T05:16:12.159Z,12
2018-10-05T05:17:22.116Z,11.97
2018-10-05T05:18:32.069Z,11.96
2018-10-05T05:19:41.910Z,11.97
2018-10-05T05:20:52.376Z,12
2018-10-05T05:22:02.336Z,11.99
2018-10-05T05:23:12.301Z,11.99
2018-10-05T05:24:22.297Z,12.03
2018-10-05T05:25:32.000Z,12.07
2018-10-05T05:26:41.949Z,12.08
2018-10-05T05:27:51.902Z,12.07
2018-10-05T05:29:01.857Z,12.12
2018-10-05T05:30:11.821Z,12.1
2018-10-05T05:31:21.864Z,12.08
2018-10-05T05:32:31.547Z,11.97
2018-10-05T05:33:42.297Z,12.02
2018-10-05T05:34:52.219Z,12.02
2018-10-05T05:36:02.185Z,11.97
2018-10-05T05:37:12.132Z,12.02
2018-10-05T05:38:22.101Z,11.97
2018-10-05T05:39:32.050Z,11.95
2018-10-05T05:40:42.015Z,11.96
2018-10-05T05:41:51.735Z,11.95
2018-10-05T05:43:01.686Z,12.02
2018-10-05T05:44:11.656Z,11.93
2018-10-05T05:45:21.654Z,11.88
2018-10-05T05:46:31.372Z,11.97
2018-10-05T05:47:41.098Z,11.99
2018-10-05T05:48:50.794Z,12
2018-10-05T05:50:00.762Z,12.05
2018-10-05T05:51:10.721Z,12.02
2018-10-05T05:52:20.686Z,12.03
2018-10-05T05:53:30.681Z,12.08
2018-10-05T05:54:40.380Z,12
2018-10-05T05:55:50.369Z,12.05
2018-10-05T05:57:00.089Z,12.08
2018-10-05T05:58:10.043Z,11.99
2018-10-05T05:59:19.750Z,12.02
2018-10-05T06:00:29.715Z,12.03
2018-10-05T06:01:39.654Z,11.99
2018-10-05T06:02:49.618Z,12
2018-10-05T06:03:59.587Z,11.99
2018-10-05T06:05:09.566Z,12
2018-10-05T06:06:19.545Z,12
2018-10-05T06:07:29.589Z,11.99
2018-10-05T06:08:39.304Z,12.1
2018-10-05T06:09:49.278Z,12.07
2018-10-05T06:10:58.695Z,12.05
2018-10-05T06:12:08.661Z,12.05
2018-10-05T06:13:18.367Z,12.08
2018-10-05T06:14:28.336Z,12.03
2018-10-05T06:15:37.541Z,12.05
2018-10-05T06:16:47.261Z,12.08
2018-10-05T06:17:56.830Z,12.1
2018-10-05T06:19:06.583Z,12.18
2018-10-05T06:20:16.031Z,12.17
2018-10-05T06:21:26.169Z,12.17
2018-10-05T06:22:36.895Z,12.1
2018-10-05T06:23:46.862Z,12.11
2018-10-05T06:24:56.902Z,12.05
2018-10-05T06:26:06.377Z,12.05
2018-10-05T06:27:15.980Z,12.1
2018-10-05T06:28:26.182Z,12.05
2018-10-05T06:29:36.152Z,12.07
2018-10-05T06:30:46.613Z,12.08
2018-10-05T06:31:56.913Z,12.1
2018-10-05T06:33:07.073Z,12.08
2018-10-05T06:34:17.262Z,12.1
2018-10-05T06:35:27.260Z,12.2
2018-10-05T06:36:37.508Z,12.14
2018-10-05T06:37:47.234Z,12.21
2018-10-05T06:38:57.063Z,12.17
2018-10-05T06:40:07.144Z,12.1
2018-10-05T06:41:17.139Z,12.1
2018-10-05T06:42:27.345Z,12.15
2018-10-05T06:43:37.110Z,12.15
2018-10-05T06:44:47.109Z,12.11
2018-10-05T06:45:56.878Z,12.2
2018-10-05T06:47:06.864Z,12.2
2018-10-05T06:48:16.836Z,12.21
2018-10-05T06:49:26.829Z,12.3
2018-10-05T06:50:36.807Z,12.28
2018-10-05T06:51:46.753Z,12.3
2018-10-05T06:52:56.490Z,12.29
2018-10-05T06:54:06.451Z,12.36
2018-10-05T06:55:16.432Z,12.4
2018-10-05T06:56:26.188Z,12.39
2018-10-05T06:57:36.182Z,12.47
2018-10-05T06:58:45.914Z,12.48
2018-10-05T06:59:55.886Z,12.53
2018-10-05T07:01:05.696Z,12.54
2018-10-05T07:02:15.710Z,12.53
2018-10-05T07:03:25.671Z,12.53
2018-10-05T07:04:35.377Z,12.51
2018-10-05T07:05:45.126Z,12.66
2018-10-05T07:06:54.582Z,12.62
2018-10-05T07:08:04.454Z,12.78
2018-10-05T07:09:14.318Z,12.7
2018-10-05T07:10:24.288Z,12.76
2018-10-05T07:11:34.473Z,12.87
2018-10-05T07:12:44.649Z,12.86
2018-10-05T07:13:54.380Z,12.88
2018-10-05T07:15:03.824Z,12.88
2018-10-05T07:16:13.814Z,12.94
2018-10-05T07:17:23.554Z,12.93
2018-10-05T07:18:33.531Z,12.98
2018-10-05T07:19:42.976Z,13.02
2018-10-05T07:20:52.943Z,13.05
2018-10-05T07:22:02.939Z,13.13
2018-10-05T07:23:12.645Z,13.13
2018-10-05T07:24:22.360Z,13.21
2018-10-05T07:25:32.092Z,13.2
2018-10-05T07:26:41.794Z,13.2
2018-10-05T07:27:51.511Z,13.31
2018-10-05T07:29:01.251Z,13.3
2018-10-05T07:30:11.220Z,13.37
2018-10-05T07:31:21.409Z,13.45
2018-10-05T07:32:31.409Z,13.46
2018-10-05T07:33:41.370Z,13.5
2018-10-05T07:34:51.364Z,13.54
2018-10-05T07:36:01.316Z,13.6
2018-10-05T07:37:11.656Z,13.65
2018-10-05T07:38:21.745Z,13.67
2018-10-05T07:39:31.424Z,13.73
2018-10-05T07:40:41.383Z,13.82
2018-10-05T07:41:51.336Z,13.76
2018-10-05T07:43:01.498Z,13.76
2018-10-05T07:44:11.416Z,13.79
2018-10-05T07:45:21.377Z,13.78
2018-10-05T07:46:31.339Z,13.93
2018-10-05T07:47:41.539Z,13.91
2018-10-05T07:48:51.522Z,13.98
2018-10-05T07:50:01.500Z,14
2018-10-05T07:51:11.462Z,14.01
2018-10-05T07:52:21.408Z,14.18
2018-10-05T07:53:31.387Z,14.19
2018-10-05T07:54:40.841Z,14.25
2018-10-05T07:55:50.591Z,14.28
2018-10-05T07:57:00.295Z,14.4
2018-10-05T07:58:10.243Z,14.52
2018-10-05T07:59:20.165Z,14.78
2018-10-05T08:00:30.132Z,14.89
2018-10-05T08:01:40.090Z,15.08
2018-10-05T08:02:50.051Z,15.25
2018-10-05T08:04:00.024Z,15.27
2018-10-05T08:05:10.013Z,15.48
2018-10-05T08:06:19.995Z,15.65
2018-10-05T08:07:29.976Z,15.75
2018-10-05T08:08:39.959Z,15.85
2018-10-05T08:09:49.966Z,16.06
2018-10-05T08:10:59.685Z,16.08
2018-10-05T08:12:09.730Z,16.24
2018-10-05T08:13:19.445Z,16.31
2018-10-05T08:14:29.166Z,16.32
2018-10-05T08:15:38.884Z,16.32
2018-10-05T08:16:48.857Z,16.5
2018-10-05T08:17:58.303Z,16.41
2018-10-05T08:19:08.270Z,16.46
2018-10-05T08:20:17.981Z,16.43
2018-10-05T08:21:28.144Z,16.49
2018-10-05T08:22:38.474Z,16.68
2018-10-05T08:23:47.923Z,16.8
2018-10-05T08:24:57.902Z,16.86
2018-10-05T08:26:07.882Z,16.98
2018-10-05T08:27:17.770Z,17.1
2018-10-05T08:28:27.475Z,17.12
2018-10-05T08:29:37.439Z,17.27
2018-10-05T08:30:47.412Z,17.42
2018-10-05T08:31:57.491Z,17.5
2018-10-05T08:33:07.206Z,17.47
2018-10-05T08:34:17.483Z,17.5
2018-10-05T08:35:27.588Z,17.5
2018-10-05T08:36:37.286Z,17.71
2018-10-05T08:37:47.274Z,17.59
2018-10-05T08:38:57.286Z,17.68
2018-10-05T08:40:07.382Z,17.78
2018-10-05T08:41:17.604Z,17.76
2018-10-05T08:42:27.581Z,17.78
2018-10-05T08:43:37.552Z,17.68
2018-10-05T08:44:47.745Z,17.75
2018-10-05T08:45:57.529Z,17.65
2018-10-05T08:47:07.895Z,17.8
2018-10-05T08:48:18.083Z,17.76
2018-10-05T08:49:28.043Z,18.08
2018-10-05T08:50:37.758Z,18.21
2018-10-05T08:51:47.671Z,18.37
2018-10-05T08:52:57.538Z,18.37
2018-10-05T08:54:07.538Z,18.53
2018-10-05T08:55:17.481Z,18.74
2018-10-05T08:56:27.453Z,18.66
2018-10-05T08:57:37.632Z,18.61
2018-10-05T08:58:47.343Z,18.71
2018-10-05T08:59:57.489Z,18.89
2018-10-05T09:01:07.661Z,19.08
2018-10-05T09:02:17.633Z,19.19
2018-10-05T09:03:27.623Z,19.44
2018-10-05T09:04:37.604Z,19.42
2018-10-05T09:05:47.838Z,19.48
2018-10-05T09:06:58.182Z,19.59
2018-10-05T09:08:08.168Z,19.7
2018-10-05T09:09:17.886Z,19.97
2018-10-05T09:10:27.637Z,20.14
2018-10-05T09:11:37.353Z,19.87
2018-10-05T09:12:47.534Z,20.08
2018-10-05T09:13:57.555Z,20.18
2018-10-05T09:15:07.574Z,20.04
2018-10-05T09:16:17.298Z,20.17
2018-10-05T09:17:27.282Z,20.24
2018-10-05T09:18:37.296Z,20.24
2018-10-05T09:19:47.489Z,20.33
2018-10-05T09:20:57.260Z,20.33
2018-10-05T09:22:06.981Z,20.32
2018-10-05T09:23:16.682Z,20.37
2018-10-05T09:24:26.405Z,20.44
2018-10-05T09:25:36.379Z,20.56
2018-10-05T09:26:46.104Z,20.7
2018-10-05T09:27:55.824Z,20.55
2018-10-05T09:29:05.803Z,20.44
2018-10-05T09:30:15.784Z,20.37
2018-10-05T09:31:25.766Z,20.44
2018-10-05T09:32:35.723Z,20.33
2018-10-05T09:33:45.427Z,20.44
2018-10-05T09:34:55.403Z,20.55
2018-10-05T09:36:05.131Z,20.74
2018-10-05T09:37:15.184Z,20.83
2018-10-05T09:38:25.290Z,20.64
2018-10-05T09:39:35.037Z,20.74
2018-10-05T09:40:44.767Z,20.64
2018-10-05T09:41:54.259Z,20.32
2018-10-05T09:43:04.440Z,20.08
2018-10-05T09:44:14.828Z,20
2018-10-05T09:45:25.201Z,20
2018-10-05T09:46:35.266Z,20.03
2018-10-05T09:47:45.244Z,20.11
2018-10-05T09:48:54.964Z,20.27
2018-10-05T09:50:04.952Z,20.29
2018-10-05T09:51:14.943Z,20.27
2018-10-05T09:52:25.013Z,20.11
2018-10-05T09:53:35.471Z,20.32
2018-10-05T09:54:45.450Z,20.29
2018-10-05T09:55:55.435Z,20.34
2018-10-05T09:57:04.892Z,20.44
2018-10-05T09:58:14.604Z,20.73
2018-10-05T09:59:24.583Z,21
2018-10-05T10:00:34.563Z,21.35
2018-10-05T10:01:44.778Z,21.43
2018-10-05T10:02:54.501Z,21.43
2018-10-05T10:04:04.225Z,21.14
2018-10-05T10:05:13.991Z,21.17
2018-10-05T10:06:23.952Z,20.95
2018-10-05T10:07:33.913Z,20.89
2018-10-05T10:08:43.903Z,20.85
2018-10-05T10:09:53.914Z,20.78
2018-10-05T10:11:03.880Z,20.89
2018-10-05T10:12:13.867Z,21.13
2018-10-05T10:13:23.868Z,21.07
2018-10-05T10:14:33.571Z,21.23
2018-10-05T10:15:43.534Z,21.41
2018-10-05T10:16:53.498Z,21.62
2018-10-05T10:18:02.736Z,21.84
2018-10-05T10:19:12.691Z,21.92
2018-10-05T10:20:22.135Z,22.07
2018-10-05T10:21:32.111Z,22.37
2018-10-05T10:22:42.026Z,22.22
2018-10-05T10:23:52.127Z,22.43
2018-10-05T10:25:02.093Z,22.55
2018-10-05T10:26:12.104Z,22.1
2018-10-05T10:27:21.842Z,21.97
2018-10-05T10:28:31.978Z,21.75
2018-10-05T10:29:42.377Z,21.65
2018-10-05T10:30:52.106Z,21.65
2018-10-05T10:32:02.063Z,21.97
2018-10-05T10:33:11.540Z,22.19
2018-10-05T10:34:21.616Z,22.3
2018-10-05T10:35:31.833Z,22.4
2018-10-05T10:36:41.971Z,22.15
2018-10-05T10:37:51.905Z,21.84
2018-10-05T10:39:01.658Z,21.58
2018-10-05T10:40:11.884Z,21.44
2018-10-05T10:41:21.848Z,21.78
2018-10-05T10:42:31.629Z,22.18
2018-10-05T10:43:41.851Z,22.26
2018-10-05T10:44:51.841Z,22.34
2018-10-05T10:46:01.572Z,22.01
2018-10-05T10:47:11.543Z,21.63
2018-10-05T10:48:21.775Z,21.56
2018-10-05T10:49:31.737Z,21.65
2018-10-05T10:50:41.478Z,21.5
2018-10-05T10:51:50.922Z,21.62
2018-10-05T10:53:01.110Z,21.48
2018-10-05T10:54:11.154Z,21.45
2018-10-05T10:55:21.444Z,21.28
2018-10-05T10:56:31.452Z,21.37
2018-10-05T10:57:41.441Z,21.43
2018-10-05T10:58:51.452Z,21.1
2018-10-05T11:00:01.411Z,21.1
2018-10-05T11:01:11.392Z,20.96
2018-10-05T11:02:21.108Z,21.04
2018-10-05T11:03:31.107Z,21.05
2018-10-05T11:04:41.334Z,21.33
2018-10-05T11:05:51.486Z,21.63
2018-10-05T11:07:01.201Z,21.84
2018-10-05T11:08:11.206Z,21.94
2018-10-05T11:09:21.195Z,22.01
2018-10-05T11:10:31.181Z,22.22
2018-10-05T11:11:41.144Z,22.33
2018-10-05T11:12:51.126Z,22.31
2018-10-05T11:14:01.105Z,22.31
2018-10-05T11:15:11.075Z,22.1
2018-10-05T11:16:20.781Z,22.31
2018-10-05T11:17:30.490Z,22.41
2018-10-05T11:18:40.211Z,22.12
2018-10-05T11:19:50.197Z,21.8
2018-10-05T11:21:00.214Z,21.81
2018-10-05T11:22:10.195Z,21.94
2018-10-05T11:23:20.633Z,22.03
2018-10-05T11:24:31.210Z,21.74
2018-10-05T11:25:40.927Z,21.84
2018-10-05T11:26:50.896Z,21.84
2018-10-05T11:28:00.869Z,22.04
2018-10-05T11:29:10.595Z,21.84
2018-10-05T11:30:20.296Z,21.88
2018-10-05T11:31:30.269Z,21.94
2018-10-05T11:32:40.234Z,22.04
2018-10-05T11:33:50.205Z,22.04
2018-10-05T11:35:00.252Z,22.01
2018-10-05T11:36:10.487Z,22.22
2018-10-05T11:37:20.450Z,22.49
2018-10-05T11:38:30.412Z,22.71
2018-10-05T11:39:40.371Z,22.7
2018-10-05T11:40:50.440Z,23.08
2018-10-05T11:42:00.824Z,23.07
2018-10-05T11:43:10.792Z,23.01
2018-10-05T11:44:20.523Z,22.93
2018-10-05T11:45:30.485Z,22.88
2018-10-05T11:46:40.199Z,22.76
2018-10-05T11:47:49.662Z,22.38
2018-10-05T11:48:59.629Z,22.34
2018-10-05T11:50:09.623Z,22.4
2018-10-05T11:51:19.606Z,22.56
2018-10-05T11:52:29.806Z,22.36
2018-10-05T11:53:40.103Z,22.31
2018-10-05T11:54:50.075Z,22.34
2018-10-05T11:55:59.795Z,22.49
2018-10-05T11:57:09.751Z,22.62
2018-10-05T11:58:19.733Z,22.84
2018-10-05T11:59:29.727Z,23.01
2018-10-05T12:00:39.795Z,23.13
2018-10-05T12:01:49.767Z,23.18
2018-10-05T12:02:59.764Z,23.33
2018-10-05T12:04:09.492Z,23.32
2018-10-05T12:05:19.727Z,23.06
2018-10-05T12:06:29.864Z,23.06
2018-10-05T12:07:39.320Z,22.95
2018-10-05T12:08:48.508Z,22.51
2018-10-05T12:09:58.483Z,22.4
2018-10-05T12:11:08.459Z,22.52
2018-10-05T12:12:18.155Z,22.52
2018-10-05T12:13:28.118Z,22.59
2018-10-05T12:14:38.104Z,22.8
2018-10-05T12:15:48.073Z,22.76
2018-10-05T12:16:57.532Z,22.61
2018-10-05T12:18:07.235Z,22.44
2018-10-05T12:19:16.937Z,22.28
2018-10-05T12:20:26.912Z,22.26
2018-10-05T12:21:36.607Z,22.51
2018-10-05T12:22:46.577Z,22.78
2018-10-05T12:23:56.286Z,22.86
2018-10-05T12:25:06.023Z,22.71
2018-10-05T12:26:15.991Z,22.63
2018-10-05T12:27:25.953Z,22.46
2018-10-05T12:28:35.913Z,22.52
2018-10-05T12:29:45.888Z,22.51
2018-10-05T12:30:55.886Z,22.38
2018-10-05T12:32:05.332Z,22.46
2018-10-05T12:33:15.454Z,22.43
2018-10-05T12:34:25.592Z,22.46
2018-10-05T12:35:35.566Z,22.44
2018-10-05T12:36:45.288Z,22.43
2018-10-05T12:37:55.039Z,22.74
2018-10-05T12:39:05.013Z,22.49
2018-10-05T12:40:14.997Z,22.56
2018-10-05T12:41:24.989Z,22.68
2018-10-05T12:42:34.698Z,22.59
2018-10-05T12:43:44.657Z,22.74
2018-10-05T12:44:54.374Z,22.73
2018-10-05T12:46:04.401Z,22.76
2018-10-05T12:47:14.397Z,22.7
2018-10-05T12:48:24.362Z,22.86
2018-10-05T12:49:34.337Z,22.99
2018-10-05T12:50:45.009Z,23.07
2018-10-05T12:51:55.583Z,22.89
2018-10-05T12:53:05.287Z,22.71
2018-10-05T12:54:15.266Z,22.46
2018-10-05T12:55:24.725Z,22.43
2018-10-05T12:56:34.446Z,22.63
2018-10-05T12:57:44.636Z,22.88
2018-10-05T12:58:54.343Z,22.73
2018-10-05T13:00:04.079Z,22.4
2018-10-05T13:01:13.776Z,22.28
2018-10-05T13:02:23.761Z,22.18
2018-10-05T13:03:33.476Z,22.18
2018-10-05T13:04:43.493Z,22.4
2018-10-05T13:05:53.254Z,22.53
2018-10-05T13:07:03.226Z,22.68
2018-10-05T13:08:13.197Z,22.74
2018-10-05T13:09:22.921Z,23.01
2018-10-05T13:10:32.885Z,23.04
2018-10-05T13:11:42.865Z,23.02
2018-10-05T13:12:52.733Z,22.98
2018-10-05T13:14:02.436Z,23.07
2018-10-05T13:15:12.406Z,22.98
2018-10-05T13:16:22.385Z,22.88
2018-10-05T13:17:32.085Z,22.78
2018-10-05T13:18:41.776Z,22.62
2018-10-05T13:19:51.479Z,22.63
2018-10-05T13:21:01.450Z,22.63
2018-10-05T13:22:11.431Z,22.71
2018-10-05T13:23:21.406Z,22.81
2018-10-05T13:24:31.411Z,22.88
2018-10-05T13:25:41.204Z,22.99
2018-10-05T13:26:50.917Z,23.23
2018-10-05T13:28:00.887Z,23.49
2018-10-05T13:29:10.599Z,23.69
2018-10-05T13:30:20.336Z,23.76
2018-10-05T13:31:30.042Z,23.45
2018-10-05T13:32:40.012Z,23.2
2018-10-05T13:33:49.980Z,22.99
2018-10-05T13:35:00.350Z,22.91
2018-10-05T13:36:10.329Z,22.78
2018-10-05T13:37:20.450Z,22.55
2018-10-05T13:38:30.734Z,22.3
2018-10-05T13:39:40.704Z,22.3
2018-10-05T13:40:50.668Z,22.26
2018-10-05T13:42:00.706Z,22.19
2018-10-05T13:43:10.731Z,22.21
2018-10-05T13:44:20.700Z,22.21
2018-10-05T13:45:30.428Z,22.36
2018-10-05T13:46:40.136Z,22.34
2018-10-05T13:47:50.085Z,22.51
2018-10-05T13:48:59.800Z,22.65
2018-10-05T13:50:09.503Z,22.65
2018-10-05T13:51:19.472Z,22.65
2018-10-05T13:52:29.429Z,22.55
2018-10-05T13:53:39.472Z,22.56
2018-10-05T13:54:49.183Z,22.38
2018-10-05T13:55:59.157Z,22.4
2018-10-05T13:57:09.139Z,22.4
2018-10-05T13:58:19.127Z,22.55
2018-10-05T13:59:29.111Z,22.4
2018-10-05T14:00:39.130Z,22.4
2018-10-05T14:01:49.082Z,22.49
2018-10-05T14:02:59.052Z,22.61
2018-10-05T14:04:08.745Z,22.68
2018-10-05T14:05:18.711Z,22.67
2018-10-05T14:06:28.167Z,22.77
2018-10-05T14:07:38.141Z,22.93
2018-10-05T14:08:48.137Z,22.86
2018-10-05T14:09:58.125Z,22.74
2018-10-05T14:11:08.088Z,22.46
2018-10-05T14:12:18.056Z,22.36
2018-10-05T14:13:28.035Z,22.31
2018-10-05T14:14:38.000Z,22.33
2018-10-05T14:15:47.964Z,22.52
2018-10-05T14:16:57.925Z,22.67
2018-10-05T14:18:07.902Z,22.73
2018-10-05T14:19:18.170Z,22.76
2018-10-05T14:20:28.442Z,22.59
2018-10-05T14:21:38.429Z,22.37
2018-10-05T14:22:48.548Z,22.31
2018-10-05T14:23:58.286Z,22.19
2018-10-05T14:25:08.002Z,22.16
2018-10-05T14:26:17.970Z,22.1
2018-10-05T14:27:27.931Z,22.28
2018-10-05T14:28:37.640Z,22.23
2018-10-05T14:29:47.336Z,22.38
2018-10-05T14:30:57.039Z,22.37
2018-10-05T14:32:06.769Z,22.41
2018-10-05T14:33:16.479Z,22.36
2018-10-05T14:34:26.448Z,22.31
2018-10-05T14:35:36.163Z,22.34
2018-10-05T14:36:46.123Z,22.23
2018-10-05T14:37:56.016Z,22.16
2018-10-05T14:39:06.173Z,22.19
2018-10-05T14:40:16.136Z,22.34
2018-10-05T14:41:25.849Z,22.15
2018-10-05T14:42:35.931Z,22.14
2018-10-05T14:43:45.641Z,22.26
2018-10-05T14:44:55.415Z,22.18
2018-10-05T14:46:05.390Z,22.14
2018-10-05T14:47:15.480Z,22.25
2018-10-05T14:48:25.434Z,22.34
2018-10-05T14:49:35.656Z,22.33
2018-10-05T14:50:46.025Z,22.33
2018-10-05T14:51:55.715Z,22.38
2018-10-05T14:53:05.431Z,22.31
2018-10-05T14:54:15.405Z,22
2018-10-05T14:55:25.366Z,21.85
2018-10-05T14:56:35.078Z,21.77
2018-10-05T14:57:44.784Z,21.74
2018-10-05T14:58:54.501Z,21.66
2018-10-05T15:00:04.209Z,21.65
2018-10-05T15:01:13.908Z,21.77
2018-10-05T15:02:23.874Z,21.72
2018-10-05T15:03:33.880Z,21.81
2018-10-05T15:04:43.850Z,21.85